createdAt,value
2017-08-02T00:00:37.345Z,78.30
2017-08-02T00:03:06.758Z,78.70
2017-08-02T00:05:36.169Z,79.00
2017-08-02T00:08:05.571Z,79.60
2017-08-02T00:10:34.765Z,78.80
2017-08-02T00:13:04.180Z,79.20
2017-08-02T00:15:33.569Z,80.00
2017-08-02T00:18:02.989Z,80.50
2017-08-02T00:20:32.392Z,80.60
2017-08-02T00:23:01.796Z,81.10
2017-08-02T00:25:31.189Z,80.80
2017-08-02T00:28:00.586Z,81.00
2017-08-02T00:30:29.990Z,81.00
2017-08-02T00:32:59.400Z,81.80
2017-08-02T00:35:28.785Z,81.50
2017-08-02T00:37:58.237Z,81.40
2017-08-02T00:40:27.635Z,81.80
2017-08-02T00:42:57.013Z,82.60
2017-08-02T00:45:26.419Z,82.20
2017-08-02T00:47:55.800Z,82.60
2017-08-02T00:50:25.208Z,82.60
2017-08-02T00:52:54.621Z,83.20
2017-08-02T00:55:24.023Z,82.90
2017-08-02T00:57:53.415Z,83.50
2017-08-02T01:00:22.842Z,83.70
2017-08-02T01:02:52.038Z,83.70
2017-08-02T01:05:21.571Z,83.80
2017-08-02T01:07:50.980Z,83.50
2017-08-02T01:10:20.390Z,84.30
2017-08-02T01:12:50.651Z,84.30
2017-08-02T01:15:20.057Z,84.10
2017-08-02T01:17:49.249Z,84.20
2017-08-02T01:20:18.661Z,84.30
2017-08-02T01:22:48.062Z,84.30
2017-08-02T01:25:17.458Z,85.30
2017-08-02T01:27:46.854Z,84.80
2017-08-02T01:30:16.246Z,85.40
2017-08-02T01:32:46.430Z,86.60
2017-08-02T01:35:15.829Z,87.30
2017-08-02T01:37:45.240Z,86.80
2017-08-02T01:40:14.629Z,87.10
2017-08-02T01:42:44.053Z,87.30
2017-08-02T01:45:13.453Z,87.40
2017-08-02T01:47:42.864Z,87.70
2017-08-02T01:50:12.060Z,88.00
2017-08-02T01:52:41.498Z,88.40
2017-08-02T01:55:10.562Z,88.60
2017-08-02T01:57:39.635Z,88.80
2017-08-02T02:00:08.331Z,89.30
2017-08-02T02:02:37.544Z,89.30
2017-08-02T02:05:07.362Z,90.00
2017-08-02T02:07:37.541Z,90.10
2017-08-02T02:10:06.955Z,90.10
2017-08-02T02:12:36.365Z,90.20
2017-08-02T02:15:05.808Z,90.50
2017-08-02T02:17:35.995Z,90.80
2017-08-02T02:20:05.431Z,90.80
2017-08-02T02:22:35.599Z,91.20
2017-08-02T02:25:05.018Z,91.20
2017-08-02T02:27:34.409Z,91.40
2017-08-02T02:30:03.811Z,91.60
2017-08-02T02:32:33.202Z,91.70
2017-08-02T02:35:02.668Z,91.90
2017-08-02T02:37:32.102Z,92.10
2017-08-02T02:40:01.634Z,92.20
2017-08-02T02:42:31.012Z,92.30
2017-08-02T02:45:00.435Z,92.50
2017-08-02T02:47:29.844Z,92.70
2017-08-02T02:49:59.270Z,92.80
2017-08-02T02:52:28.674Z,92.80
2017-08-02T02:54:58.089Z,92.90
2017-08-02T02:57:28.266Z,93.00
2017-08-02T02:59:57.674Z,93.00
2017-08-02T03:02:27.085Z,93.20
2017-08-02T03:04:56.487Z,93.30
2017-08-02T03:07:25.907Z,93.40
2017-08-02T03:09:56.077Z,94.00
2017-08-02T03:12:25.515Z,93.90
2017-08-02T03:14:54.945Z,94.10
2017-08-02T03:17:24.365Z,94.10
2017-08-02T03:19:54.531Z,94.30
2017-08-02T03:22:23.953Z,94.30
2017-08-02T03:24:53.364Z,94.30
2017-08-02T03:27:22.779Z,94.30
2017-08-02T03:29:52.182Z,94.30
2017-08-02T03:32:22.375Z,94.40
2017-08-02T03:34:51.760Z,94.50
2017-08-02T03:37:21.182Z,94.70
2017-08-02T03:39:50.584Z,94.80
2017-08-02T03:42:20.001Z,94.90
2017-08-02T03:44:49.410Z,95.10
2017-08-02T03:47:18.831Z,95.20
2017-08-02T03:49:48.256Z,95.20
2017-08-02T03:52:17.658Z,95.30
2017-08-02T03:54:47.086Z,95.30
2017-08-02T03:57:17.250Z,95.40
2017-08-02T03:59:46.675Z,95.40
2017-08-02T04:02:16.067Z,95.40
2017-08-02T04:04:45.495Z,95.50
2017-08-02T04:07:16.010Z,95.90
2017-08-02T04:09:46.179Z,95.60
2017-08-02T04:12:15.941Z,95.40
2017-08-02T04:14:46.311Z,95.00
2017-08-02T04:17:16.163Z,95.00
2017-08-02T04:19:45.593Z,94.80
2017-08-02T04:22:15.003Z,94.80
2017-08-02T04:24:44.420Z,94.90
2017-08-02T04:27:14.604Z,94.90
2017-08-02T04:29:44.294Z,94.90
2017-08-02T04:32:13.965Z,94.90
2017-08-02T04:34:44.186Z,95.20
2017-08-02T04:37:14.365Z,95.00
2017-08-02T04:39:43.773Z,95.00
2017-08-02T04:42:13.192Z,94.80
2017-08-02T04:44:42.597Z,94.90
2017-08-02T04:47:12.012Z,95.00
2017-08-02T04:49:41.510Z,94.90
2017-08-02T04:52:10.916Z,95.00
2017-08-02T04:54:41.238Z,95.30
2017-08-02T04:57:11.654Z,95.30
2017-08-02T04:59:41.073Z,95.30
2017-08-02T05:02:10.516Z,95.40
2017-08-02T05:04:39.912Z,95.60
2017-08-02T05:07:09.394Z,95.70
2017-08-02T05:09:39.556Z,96.00
2017-08-02T05:12:09.022Z,96.10
2017-08-02T05:14:38.836Z,95.30
2017-08-02T05:17:09.022Z,95.20
2017-08-02T05:19:38.414Z,95.20
2017-08-02T05:22:07.825Z,95.10
2017-08-02T05:24:37.228Z,94.60
2017-08-02T05:27:06.629Z,94.70
2017-08-02T05:29:36.055Z,94.70
2017-08-02T05:32:05.471Z,94.50
2017-08-02T05:34:35.177Z,94.40
2017-08-02T05:37:04.576Z,94.00
2017-08-02T05:39:34.035Z,93.60
2017-08-02T05:42:03.450Z,93.00
2017-08-02T05:44:32.870Z,92.50
2017-08-02T05:47:02.280Z,92.10
2017-08-02T05:49:31.749Z,91.90
2017-08-02T05:52:01.136Z,91.30
2017-08-02T05:54:30.546Z,91.00
2017-08-02T05:57:00.514Z,90.90
2017-08-02T05:59:29.986Z,90.50
2017-08-02T06:01:59.396Z,90.40
2017-08-02T06:04:28.817Z,90.40
2017-08-02T06:06:58.225Z,90.10
2017-08-02T06:09:27.633Z,90.00
2017-08-02T06:11:56.856Z,90.00
2017-08-02T06:14:27.012Z,87.70
2017-08-02T06:16:56.293Z,87.50
2017-08-02T06:19:25.719Z,86.50
2017-08-02T06:21:54.945Z,85.80
2017-08-02T06:24:24.175Z,84.60
2017-08-02T06:26:54.358Z,84.60
2017-08-02T06:29:23.763Z,84.60
2017-08-02T06:31:52.980Z,86.00
2017-08-02T06:34:22.412Z,85.90
2017-08-02T06:36:51.843Z,86.90
2017-08-02T06:39:21.266Z,85.50
2017-08-02T06:41:50.675Z,84.40
2017-08-02T06:44:20.111Z,83.40
2017-08-02T06:46:50.306Z,83.30
2017-08-02T06:49:19.693Z,83.30
2017-08-02T06:51:49.184Z,82.10
2017-08-02T06:54:18.627Z,83.40
2017-08-02T06:56:48.011Z,83.50
2017-08-02T06:59:17.454Z,82.70
2017-08-02T07:01:47.671Z,83.30
2017-08-02T07:04:17.883Z,85.40
2017-08-02T07:06:47.315Z,84.70
2017-08-02T07:09:16.739Z,84.70
2017-08-02T07:11:46.133Z,84.00
2017-08-02T07:14:15.540Z,83.90
2017-08-02T07:16:44.946Z,84.30
2017-08-02T07:19:14.374Z,84.50
2017-08-02T07:21:43.781Z,82.90
2017-08-02T07:24:13.209Z,82.30
2017-08-02T07:26:42.624Z,81.50
2017-08-02T07:29:12.068Z,79.20
2017-08-02T07:31:41.482Z,79.80
2017-08-02T07:34:10.910Z,79.50
2017-08-02T07:36:40.349Z,76.20
2017-08-02T07:39:10.549Z,75.80
2017-08-02T07:41:39.993Z,75.70
2017-08-02T07:44:09.410Z,77.50
2017-08-02T07:46:38.957Z,76.00
2017-08-02T07:49:08.365Z,73.40
2017-08-02T07:51:37.772Z,72.20
2017-08-02T07:54:07.276Z,71.80
2017-08-02T07:56:36.677Z,72.00
2017-08-02T07:59:06.095Z,69.60
2017-08-02T08:01:35.537Z,68.90
2017-08-02T08:04:04.961Z,70.90
2017-08-02T08:06:34.420Z,70.80
2017-08-02T08:09:03.920Z,70.10
2017-08-02T08:11:34.124Z,70.30
2017-08-02T08:14:03.513Z,70.30
2017-08-02T08:16:32.951Z,69.50
2017-08-02T08:19:03.121Z,68.20
2017-08-02T08:21:32.674Z,68.20
2017-08-02T08:24:02.881Z,65.40
2017-08-02T08:26:32.273Z,65.30
2017-08-02T08:29:01.706Z,64.50
2017-08-02T08:31:30.758Z,65.00
2017-08-02T08:34:00.194Z,64.70
2017-08-02T08:36:29.607Z,66.30
2017-08-02T08:38:59.030Z,67.50
2017-08-02T08:41:28.741Z,67.60
2017-08-02T08:43:58.153Z,66.70
2017-08-02T08:46:28.328Z,67.30
2017-08-02T08:48:57.728Z,67.30
2017-08-02T08:51:27.139Z,65.70
2017-08-02T08:53:56.554Z,66.60
2017-08-02T08:56:25.950Z,66.90
2017-08-02T08:58:55.360Z,68.70
2017-08-02T09:01:24.816Z,69.70
2017-08-02T09:03:54.236Z,70.70
2017-08-02T09:06:23.650Z,71.50
2017-08-02T09:08:53.056Z,72.90
2017-08-02T09:11:22.475Z,73.10
2017-08-02T09:13:51.914Z,71.50
2017-08-02T09:16:22.086Z,67.90
2017-08-02T09:18:51.502Z,67.80
2017-08-02T09:21:20.925Z,66.10
2017-08-02T09:23:51.085Z,60.50
2017-08-02T09:26:20.498Z,60.40
2017-08-02T09:28:49.894Z,59.50
2017-08-02T09:31:19.324Z,59.30
2017-08-02T09:33:48.714Z,59.60
2017-08-02T09:36:18.145Z,62.40
2017-08-02T09:38:47.543Z,64.30
2017-08-02T09:41:16.970Z,63.50
2017-08-02T09:43:47.157Z,64.10
2017-08-02T09:46:16.388Z,64.10
2017-08-02T09:48:46.541Z,67.00
2017-08-02T09:51:15.962Z,67.00
2017-08-02T09:53:45.384Z,64.80
2017-08-02T09:56:14.776Z,66.30
2017-08-02T09:58:44.208Z,66.70
2017-08-02T10:01:13.580Z,65.60
2017-08-02T10:03:42.993Z,64.80
2017-08-02T10:06:12.441Z,64.80
2017-08-02T10:08:42.541Z,64.20
2017-08-02T10:11:11.935Z,64.30
2017-08-02T10:13:41.353Z,60.60
2017-08-02T10:16:10.754Z,58.00
2017-08-02T10:18:40.171Z,57.80
2017-08-02T10:21:10.361Z,58.70
2017-08-02T10:23:39.581Z,58.50
2017-08-02T10:26:09.052Z,59.80
2017-08-02T10:28:38.482Z,61.20
2017-08-02T10:31:07.883Z,61.20
2017-08-02T10:33:37.324Z,62.60
2017-08-02T10:36:07.490Z,61.70
2017-08-02T10:38:36.940Z,61.70
2017-08-02T10:41:07.102Z,64.40
2017-08-02T10:43:36.529Z,64.20
2017-08-02T10:46:05.951Z,61.40
2017-08-02T10:48:35.380Z,58.50
2017-08-02T10:51:05.572Z,55.90
2017-08-02T10:53:35.050Z,55.90
2017-08-02T10:56:04.277Z,57.20
2017-08-02T10:58:33.727Z,58.90
2017-08-02T11:01:03.908Z,60.90
2017-08-02T11:03:33.307Z,60.90
2017-08-02T11:06:02.730Z,62.20
2017-08-02T11:08:32.157Z,64.50
2017-08-02T11:11:02.346Z,60.30
2017-08-02T11:13:31.776Z,60.30
2017-08-02T11:16:01.970Z,60.50
2017-08-02T11:18:31.384Z,60.50
2017-08-02T11:21:00.793Z,58.60
2017-08-02T11:23:30.185Z,60.00
2017-08-02T11:25:59.659Z,60.90
2017-08-02T11:28:29.078Z,62.10
2017-08-02T11:30:58.495Z,61.60
2017-08-02T11:33:27.928Z,61.90
2017-08-02T11:35:58.112Z,63.10
2017-08-02T11:38:27.536Z,63.10
2017-08-02T11:40:57.736Z,63.10
2017-08-02T11:43:27.163Z,63.70
2017-08-02T11:45:57.379Z,56.50
2017-08-02T11:48:26.802Z,56.10
2017-08-02T11:50:56.990Z,56.00
2017-08-02T11:53:26.546Z,56.00
2017-08-02T11:55:55.602Z,57.00
2017-08-02T11:58:25.000Z,55.00
2017-08-02T12:00:54.516Z,55.90
2017-08-02T12:03:23.564Z,56.90
2017-08-02T12:05:53.004Z,57.80
2017-08-02T12:08:22.192Z,58.90
2017-08-02T12:10:51.601Z,56.70
2017-08-02T12:13:20.832Z,52.40
2017-08-02T12:15:50.990Z,48.90
2017-08-02T12:18:20.407Z,48.90
2017-08-02T12:20:49.826Z,49.10
2017-08-02T12:23:19.273Z,46.40
2017-08-02T12:25:49.426Z,45.00
2017-08-02T12:28:18.839Z,44.50
2017-08-02T12:30:48.240Z,43.30
2017-08-02T12:33:17.643Z,41.90
2017-08-02T12:35:47.059Z,41.50
2017-08-02T12:38:16.463Z,42.80
2017-08-02T12:40:45.872Z,43.90
2017-08-02T12:43:15.303Z,45.40
2017-08-02T12:45:44.704Z,46.30
2017-08-02T12:48:14.868Z,48.50
2017-08-02T12:50:44.285Z,48.50
2017-08-02T12:53:13.692Z,49.40
2017-08-02T12:55:42.884Z,50.20
2017-08-02T12:58:12.288Z,50.30
2017-08-02T13:00:41.660Z,51.80
2017-08-02T13:03:11.072Z,52.70
2017-08-02T13:05:40.491Z,53.40
2017-08-02T13:08:09.884Z,53.90
2017-08-02T13:10:39.285Z,55.00
2017-08-02T13:13:08.718Z,53.50
2017-08-02T13:15:38.122Z,53.70
2017-08-02T13:18:07.516Z,53.60
2017-08-02T13:20:36.916Z,53.90
2017-08-02T13:23:06.119Z,54.10
2017-08-02T13:25:35.535Z,54.90
2017-08-02T13:28:04.920Z,56.30
2017-08-02T13:30:33.982Z,56.80
2017-08-02T13:33:02.739Z,55.80
2017-08-02T13:35:32.156Z,55.50
2017-08-02T13:38:01.607Z,55.20
2017-08-02T13:40:31.026Z,55.70
2017-08-02T13:43:00.423Z,56.70
2017-08-02T13:45:30.412Z,56.80
2017-08-02T13:47:59.848Z,56.80
2017-08-02T13:50:29.651Z,57.50
2017-08-02T13:52:59.856Z,56.90
2017-08-02T13:55:29.257Z,56.30
2017-08-02T13:57:58.686Z,54.10
2017-08-02T14:00:28.841Z,52.00
2017-08-02T14:02:58.268Z,52.00
2017-08-02T14:05:27.654Z,51.60
2017-08-02T14:07:57.087Z,50.70
2017-08-02T14:10:26.498Z,48.00
2017-08-02T14:12:55.904Z,46.60
2017-08-02T14:15:25.327Z,44.10
2017-08-02T14:17:54.756Z,43.20
2017-08-02T14:20:24.155Z,44.40
2017-08-02T14:22:53.550Z,46.40
2017-08-02T14:25:22.937Z,45.00
2017-08-02T14:27:52.329Z,44.10
2017-08-02T14:30:21.846Z,42.00
2017-08-02T14:32:51.268Z,44.90
2017-08-02T14:35:20.658Z,45.30
2017-08-02T14:37:50.095Z,44.10
2017-08-02T14:40:19.468Z,46.50
2017-08-02T14:42:48.869Z,46.70
2017-08-02T14:45:18.253Z,48.10
2017-08-02T14:47:47.653Z,50.00
2017-08-02T14:50:17.179Z,51.70
2017-08-02T14:52:47.280Z,52.50
2017-08-02T14:55:16.927Z,51.70
2017-08-02T14:57:46.556Z,52.20
2017-08-02T15:00:16.082Z,51.10
2017-08-02T15:02:46.390Z,48.60
2017-08-02T15:05:16.607Z,47.20
2017-08-02T15:07:46.091Z,47.10
2017-08-02T15:10:15.552Z,49.60
2017-08-02T15:12:45.020Z,50.20
2017-08-02T15:15:14.444Z,49.70
2017-08-02T15:17:44.590Z,50.80
2017-08-02T15:20:14.010Z,50.80
2017-08-02T15:22:43.413Z,52.50
2017-08-02T15:25:12.835Z,49.80
2017-08-02T15:27:42.220Z,44.90
2017-08-02T15:30:11.622Z,48.00
2017-08-02T15:32:41.010Z,47.10
2017-08-02T15:35:10.415Z,50.60
2017-08-02T15:37:39.947Z,47.80
2017-08-02T15:40:09.360Z,47.20
2017-08-02T15:42:38.750Z,48.70
2017-08-02T15:45:08.147Z,47.30
2017-08-02T15:47:37.660Z,48.20
2017-08-02T15:50:07.192Z,46.40
2017-08-02T15:52:36.596Z,48.10
2017-08-02T15:55:06.031Z,44.20
2017-08-02T15:57:35.434Z,46.20
2017-08-02T16:00:05.601Z,44.20
2017-08-02T16:02:35.024Z,44.30
2017-08-02T16:05:03.884Z,43.80
2017-08-02T16:07:33.298Z,48.10
2017-08-02T16:10:02.686Z,45.40
2017-08-02T16:12:32.116Z,46.50
2017-08-02T16:15:01.509Z,46.30
2017-08-02T16:17:30.926Z,46.10
2017-08-02T16:20:00.326Z,48.20
2017-08-02T16:22:29.732Z,49.60
2017-08-02T16:24:59.129Z,52.00
2017-08-02T16:27:28.545Z,49.30
2017-08-02T16:29:57.912Z,49.20
2017-08-02T16:32:27.312Z,50.40
2017-08-02T16:34:56.711Z,50.70
2017-08-02T16:37:26.114Z,49.40
2017-08-02T16:39:55.530Z,49.80
2017-08-02T16:42:24.963Z,51.40
2017-08-02T16:44:54.372Z,51.50
2017-08-02T16:47:23.799Z,53.70
2017-08-02T16:49:53.641Z,52.40
2017-08-02T16:52:24.673Z,52.40
2017-08-02T16:54:54.100Z,53.70
2017-08-02T16:57:23.498Z,52.70
2017-08-02T16:59:52.926Z,53.30
2017-08-02T17:02:22.327Z,52.00
2017-08-02T17:04:51.729Z,53.20
2017-08-02T17:07:21.140Z,53.00
2017-08-02T17:09:50.556Z,55.00
2017-08-02T17:12:19.937Z,51.80
2017-08-02T17:14:49.336Z,53.80
2017-08-02T17:17:18.746Z,52.20
2017-08-02T17:19:48.202Z,51.90
2017-08-02T17:22:17.297Z,51.90
2017-08-02T17:24:46.702Z,53.30
2017-08-02T17:27:16.126Z,52.50
2017-08-02T17:29:45.542Z,54.60
2017-08-02T17:32:14.631Z,53.00
2017-08-02T17:34:44.066Z,54.10
2017-08-02T17:37:13.482Z,55.50
2017-08-02T17:39:42.907Z,55.00
2017-08-02T17:42:12.363Z,55.80
2017-08-02T17:44:41.788Z,56.20
2017-08-02T17:47:11.197Z,55.60
2017-08-02T17:49:41.373Z,56.10
2017-08-02T17:52:10.797Z,56.40
2017-08-02T17:54:40.246Z,56.70
2017-08-02T17:57:09.669Z,57.00
2017-08-02T17:59:39.074Z,56.30
2017-08-02T18:02:08.513Z,56.50
2017-08-02T18:04:37.908Z,56.80
2017-08-02T18:07:07.326Z,56.90
2017-08-02T18:09:36.889Z,57.20
2017-08-02T18:12:06.324Z,57.20
2017-08-02T18:14:35.394Z,57.40
2017-08-02T18:17:04.777Z,57.30
2017-08-02T18:19:34.204Z,57.70
2017-08-02T18:22:03.618Z,58.00
2017-08-02T18:24:33.020Z,58.20
2017-08-02T18:27:02.437Z,57.50
2017-08-02T18:29:31.841Z,56.40
2017-08-02T18:32:01.233Z,56.60
2017-08-02T18:34:30.671Z,57.40
2017-08-02T18:37:00.079Z,56.80
2017-08-02T18:39:30.065Z,57.00
2017-08-02T18:41:59.472Z,57.00
2017-08-02T18:44:28.883Z,60.20
2017-08-02T18:46:58.314Z,60.70
2017-08-02T18:49:27.730Z,64.20
2017-08-02T18:51:57.138Z,69.80
2017-08-02T18:54:26.563Z,71.40
2017-08-02T18:56:56.744Z,72.90
2017-08-02T18:59:26.150Z,72.70
2017-08-02T19:01:55.593Z,75.50
2017-08-02T19:04:25.776Z,75.80
2017-08-02T19:06:55.197Z,75.70
2017-08-02T19:09:24.599Z,75.60
2017-08-02T19:11:54.018Z,72.30
2017-08-02T19:14:23.406Z,72.40
2017-08-02T19:16:52.806Z,71.80
2017-08-02T19:19:21.881Z,72.70
2017-08-02T19:21:51.290Z,72.50
2017-08-02T19:24:20.706Z,73.20
2017-08-02T19:26:50.113Z,73.50
2017-08-02T19:29:19.508Z,73.10
2017-08-02T19:31:48.910Z,72.50
2017-08-02T19:34:18.312Z,72.10
2017-08-02T19:36:48.434Z,75.30
2017-08-02T19:39:17.834Z,74.00
2017-08-02T19:41:47.212Z,75.80
2017-08-02T19:44:16.651Z,75.20
2017-08-02T19:46:46.036Z,74.80
2017-08-02T19:49:15.496Z,74.40
2017-08-02T19:51:45.666Z,72.80
2017-08-02T19:54:15.135Z,72.70
2017-08-02T19:56:44.529Z,75.30
2017-08-02T19:59:14.732Z,73.50
2017-08-02T20:01:44.153Z,73.50
2017-08-02T20:04:14.331Z,73.60
2017-08-02T20:06:43.730Z,73.70
2017-08-02T20:09:13.146Z,73.50
2017-08-02T20:11:42.549Z,75.60
2017-08-02T20:14:11.635Z,75.40
2017-08-02T20:16:41.040Z,75.10
2017-08-02T20:19:10.454Z,73.00
2017-08-02T20:21:39.849Z,75.30
2017-08-02T20:24:09.262Z,73.50
2017-08-02T20:26:38.747Z,74.50
2017-08-02T20:29:08.180Z,75.20
2017-08-02T20:31:37.607Z,77.30
2017-08-02T20:34:07.018Z,75.50
2017-08-02T20:36:36.446Z,76.30
2017-08-02T20:39:05.507Z,75.80
2017-08-02T20:41:35.010Z,74.50
2017-08-02T20:44:04.405Z,74.40
2017-08-02T20:46:33.805Z,74.20
2017-08-02T20:49:03.210Z,72.10
2017-08-02T20:51:32.428Z,72.40
2017-08-02T20:54:01.831Z,74.00
2017-08-02T20:56:31.248Z,73.30
2017-08-02T20:59:00.636Z,72.70
2017-08-02T21:01:30.058Z,73.50
2017-08-02T21:03:59.286Z,73.30
2017-08-02T21:06:28.374Z,73.50
2017-08-02T21:08:57.771Z,73.00
2017-08-02T21:11:27.206Z,73.70
2017-08-02T21:13:56.600Z,73.50
2017-08-02T21:16:25.992Z,72.20
2017-08-02T21:18:55.429Z,73.10
2017-08-02T21:21:24.820Z,73.50
2017-08-02T21:23:54.257Z,73.80
2017-08-02T21:26:23.660Z,73.50
2017-08-02T21:28:53.078Z,74.20
2017-08-02T21:31:22.467Z,74.60
2017-08-02T21:33:51.908Z,75.50
2017-08-02T21:36:21.312Z,75.00
2017-08-02T21:38:50.769Z,75.20
2017-08-02T21:41:20.185Z,75.00
2017-08-02T21:43:49.586Z,74.30
2017-08-02T21:46:18.964Z,74.80
2017-08-02T21:48:48.382Z,74.80
2017-08-02T21:51:17.815Z,74.60
2017-08-02T21:53:47.994Z,76.00
2017-08-02T21:56:17.455Z,76.00
2017-08-02T21:58:46.867Z,76.60
2017-08-02T22:01:27.409Z,76.30
2017-08-02T22:03:57.380Z,77.30
2017-08-02T22:06:26.452Z,77.20
2017-08-02T22:08:55.504Z,77.70
2017-08-02T22:11:24.902Z,77.10
2017-08-02T22:13:54.102Z,77.20
2017-08-02T22:16:23.501Z,76.50
2017-08-02T22:18:52.976Z,76.40
2017-08-02T22:21:22.379Z,76.50
2017-08-02T22:23:51.773Z,77.10
2017-08-02T22:26:20.991Z,78.20
2017-08-02T22:28:50.438Z,78.70
2017-08-02T22:31:20.195Z,78.00
2017-08-02T22:33:49.577Z,77.30
2017-08-02T22:36:18.992Z,78.30
2017-08-02T22:38:48.396Z,78.30
2017-08-02T22:41:17.829Z,79.50
2017-08-02T22:43:47.205Z,79.70
2017-08-02T22:46:16.634Z,79.10
2017-08-02T22:48:46.820Z,81.40
2017-08-02T22:51:16.240Z,80.50
2017-08-02T22:53:45.632Z,80.70
2017-08-02T22:56:15.049Z,81.00
2017-08-02T22:58:44.461Z,81.80
2017-08-02T23:01:13.879Z,81.80
2017-08-02T23:03:43.089Z,81.40
2017-08-02T23:06:12.506Z,80.20
2017-08-02T23:08:41.940Z,81.00
2017-08-02T23:11:11.352Z,81.90
2017-08-02T23:13:40.777Z,82.40
2017-08-02T23:16:10.193Z,82.50
2017-08-02T23:18:39.599Z,81.40
2017-08-02T23:21:08.662Z,80.60
2017-08-02T23:23:37.895Z,80.20
2017-08-02T23:26:07.309Z,81.60
2017-08-02T23:28:36.733Z,80.70
2017-08-02T23:31:06.146Z,80.50
2017-08-02T23:33:36.367Z,81.50
2017-08-02T23:36:06.576Z,81.80
2017-08-02T23:38:35.985Z,81.80
2017-08-02T23:41:05.415Z,82.40
2017-08-02T23:43:34.506Z,81.50
2017-08-02T23:46:04.698Z,81.30
2017-08-02T23:48:34.101Z,81.30
2017-08-02T23:51:03.521Z,81.20
2017-08-02T23:53:33.503Z,81.40
2017-08-02T23:56:02.899Z,81.40
2017-08-02T23:58:32.308Z,81.80
